Terminal Aerodrome Forecast
Issued by NWS Sioux Falls, SD

Home | Current Version | Previous Version | Graphics & Text | Print | Product List | Glossary On
Versions: 1 2 3 4 5 6 7 8 9 10 11 12 13 14 15 16 17 18 19
000
FTUS43 KFSD 220851 AAB
TAFHON
TAF AMD
KHON 220851Z 2209/2306 VRB06KT P6SM BKN008 OVC070
     FM221500 31008KT 4SM -DZSN BR OVC006
     FM222000 32010KT 6SM -SN OVC010
     FM230200 35011KT 4SM -SN OVC006=

USA.gov is the U.S. government's official web portal to all federal, state and local government web resources and services.